createdAt,value
2019-04-03T00:04:04.669Z,24.07
2019-04-03T00:09:11.159Z,26.40
2019-04-03T00:14:17.741Z,23.33
2019-04-03T00:19:23.923Z,22.80
2019-04-03T00:24:29.987Z,25.27
2019-04-03T00:29:36.163Z,30.77
2019-04-03T00:34:43.286Z,25.13
2019-04-03T00:39:49.354Z,26.40
2019-04-03T00:44:55.526Z,28.10
2019-04-03T00:50:01.710Z,26.43
2019-04-03T00:55:07.867Z,28.27
2019-04-03T01:00:16.238Z,26.37
2019-04-03T01:05:22.370Z,26.73
2019-04-03T01:10:29.780Z,27.47
2019-04-03T01:15:36.321Z,27.10
2019-04-03T01:20:42.447Z,28.83
2019-04-03T01:25:48.630Z,30.47
2019-04-03T01:30:54.717Z,29.77
2019-04-03T01:36:00.778Z,25.53
2019-04-03T01:41:07.183Z,28.30
2019-04-03T01:46:13.186Z,25.23
2019-04-03T01:51:19.281Z,30.90
2019-04-03T01:56:25.354Z,29.13
2019-04-03T02:01:31.521Z,26.20
2019-04-03T02:06:37.605Z,35.63
2019-04-03T02:11:43.713Z,27.77
2019-04-03T02:16:49.882Z,27.63
2019-04-03T02:21:57.988Z,29.13
2019-04-03T02:27:03.662Z,27.33
2019-04-03T02:32:10.840Z,29.37
2019-04-03T02:37:17.727Z,29.83
2019-04-03T02:42:24.010Z,27.23
2019-04-03T02:47:32.538Z,27.17
2019-04-03T02:52:37.902Z,27.87
2019-04-03T02:57:44.255Z,25.83
2019-04-03T03:02:50.367Z,31.67
2019-04-03T03:07:57.832Z,27.33
2019-04-03T03:13:04.040Z,27.97
2019-04-03T03:18:10.538Z,25.87
2019-04-03T03:23:16.713Z,31.53
2019-04-03T03:28:23.723Z,29.77
2019-04-03T03:33:36.337Z,27.83
2019-04-03T03:38:39.485Z,26.57
2019-04-03T03:43:46.475Z,28.77
2019-04-03T03:48:53.140Z,25.97
2019-04-03T03:53:59.816Z,31.10
2019-04-03T03:59:07.438Z,31.80
2019-04-03T04:04:15.682Z,27.37
2019-04-03T04:09:22.448Z,27.17
2019-04-03T04:14:28.557Z,32.17
2019-04-03T04:19:35.812Z,27.90
2019-04-03T04:24:41.941Z,29.00
2019-04-03T04:29:48.174Z,28.50
2019-04-03T04:34:54.400Z,32.70
2019-04-03T04:40:00.526Z,29.10
2019-04-03T04:45:07.240Z,35.80
2019-04-03T04:50:14.679Z,33.37
2019-04-03T04:55:20.802Z,28.87
2019-04-03T05:00:29.407Z,34.77
2019-04-03T05:05:34.805Z,40.53
2019-04-03T05:10:40.952Z,38.53
2019-04-03T05:15:47.239Z,33.63
2019-04-03T05:20:54.463Z,38.10
2019-04-03T05:26:01.898Z,39.43
2019-04-03T05:31:08.899Z,28.93
2019-04-03T05:36:17.091Z,38.13
2019-04-03T05:41:23.023Z,47.03
2019-04-03T05:46:29.198Z,30.63
2019-04-03T05:51:36.226Z,39.07
2019-04-03T05:56:42.980Z,40.13
2019-04-03T06:01:49.636Z,38.40
2019-04-03T06:06:55.799Z,51.13
2019-04-03T06:12:01.873Z,31.93
2019-04-03T06:17:08.055Z,38.43
2019-04-03T06:22:16.342Z,31.97
2019-04-03T06:27:22.142Z,31.30
2019-04-03T06:32:29.176Z,37.50
2019-04-03T06:37:35.924Z,35.00
2019-04-03T06:42:44.130Z,27.57
2019-04-03T06:47:50.132Z,30.00
2019-04-03T06:52:56.397Z,31.10
2019-04-03T06:58:02.574Z,26.07
2019-04-03T07:03:08.608Z,23.87
2019-04-03T07:08:14.687Z,22.33
2019-04-03T07:13:21.105Z,26.37
2019-04-03T07:18:27.610Z,28.03
2019-04-03T07:23:33.711Z,23.97
2019-04-03T07:28:41.592Z,21.07
2019-04-03T07:33:47.707Z,22.87
2019-04-03T07:38:53.799Z,21.07
2019-04-03T07:43:59.633Z,23.93
2019-04-03T07:49:06.784Z,19.70
2019-04-03T07:54:13.820Z,21.60
2019-04-03T07:59:20.035Z,22.33
2019-04-03T08:04:26.098Z,20.57
2019-04-03T08:09:32.249Z,22.23
2019-04-03T08:14:40.471Z,20.13
2019-04-03T08:19:46.255Z,22.50
2019-04-03T08:24:53.717Z,20.63
2019-04-03T08:30:00.112Z,25.33
2019-04-03T08:35:19.825Z,21.63
2019-04-03T08:40:15.354Z,22.70
2019-04-03T08:45:22.162Z,23.83
2019-04-03T08:50:29.132Z,21.27
2019-04-03T08:55:35.417Z,23.00
2019-04-03T09:00:41.810Z,20.03
2019-04-03T09:05:50.563Z,19.27
2019-04-03T09:10:55.977Z,21.87
2019-04-03T09:16:02.199Z,21.80
2019-04-03T09:21:08.487Z,24.07
2019-04-03T09:26:14.564Z,22.77
2019-04-03T09:31:20.836Z,23.30
2019-04-03T09:36:26.942Z,19.87
2019-04-03T09:41:32.969Z,22.77
2019-04-03T09:46:39.048Z,20.10
2019-04-03T09:51:45.317Z,21.93
2019-04-03T09:56:57.852Z,20.10
2019-04-03T10:01:59.244Z,20.73
2019-04-03T10:07:05.390Z,18.77
2019-04-03T10:12:11.634Z,18.00
2019-04-03T10:17:17.750Z,18.10
2019-04-03T10:22:24.179Z,19.92
2019-04-03T10:27:30.918Z,20.30
2019-04-03T10:32:37.036Z,18.42
2019-04-03T10:37:45.635Z,17.45
2019-04-03T10:42:50.967Z,17.80
2019-04-03T10:47:57.269Z,19.62
2019-04-03T10:53:03.367Z,17.60
2019-04-03T10:58:09.458Z,17.60
2019-04-03T11:03:15.690Z,19.05
2019-04-03T11:08:21.906Z,18.90
2019-04-03T11:13:27.961Z,16.82
2019-04-03T11:18:34.005Z,18.30
2019-04-03T11:23:44.308Z,22.90
2019-04-03T11:28:48.362Z,18.32
2019-04-03T11:33:55.030Z,19.62
2019-04-03T11:39:11.066Z,20.45
2019-04-03T11:44:09.932Z,19.55
2019-04-03T11:49:15.998Z,18.87
2019-04-03T11:54:22.067Z,17.37
2019-04-03T11:59:28.408Z,23.05
2019-04-03T12:04:34.844Z,22.48
2019-04-03T12:09:40.983Z,20.05
2019-04-03T12:14:49.142Z,20.75
2019-04-03T12:19:54.895Z,19.65
2019-04-03T12:25:00.961Z,22.02
2019-04-03T12:30:08.295Z,19.92
2019-04-03T12:35:15.510Z,21.87
2019-04-03T12:40:21.966Z,19.37
2019-04-03T12:45:28.362Z,22.27
2019-04-03T12:50:35.734Z,17.80
2019-04-03T12:55:42.923Z,19.98
2019-04-03T13:00:49.203Z,17.00
2019-04-03T13:05:55.311Z,18.50
2019-04-03T13:11:01.684Z,23.22
2019-04-03T13:16:10.257Z,23.22
2019-04-03T13:21:15.592Z,17.32
2019-04-03T13:26:24.098Z,21.12
2019-04-03T13:31:29.519Z,19.70
2019-04-03T13:36:35.745Z,20.35
2019-04-03T13:41:43.132Z,22.40
2019-04-03T13:46:52.263Z,22.15
2019-04-03T13:52:01.548Z,16.80
2019-04-03T13:57:05.379Z,17.87
2019-04-03T14:02:13.639Z,20.20
2019-04-03T14:07:19.367Z,19.53
2019-04-03T14:12:25.879Z,20.13
2019-04-03T14:17:32.270Z,21.60
2019-04-03T14:22:38.605Z,18.87
2019-04-03T14:27:44.802Z,18.63
2019-04-03T14:32:53.397Z,15.87
2019-04-03T14:38:00.216Z,18.17
2019-04-03T14:43:06.638Z,20.63
2019-04-03T14:48:12.827Z,19.53
2019-04-03T14:53:20.222Z,20.10
2019-04-03T14:58:27.582Z,17.80
2019-04-03T15:03:34.882Z,21.40
2019-04-03T15:08:41.055Z,18.67
2019-04-03T15:13:47.410Z,20.77
2019-04-03T15:18:54.874Z,22.87
2019-04-03T15:24:01.017Z,23.53
2019-04-03T15:29:07.290Z,24.67
2019-04-03T15:34:13.903Z,20.27
2019-04-03T15:39:20.422Z,22.20
2019-04-03T15:44:28.371Z,27.37
2019-04-03T15:49:35.501Z,22.67
2019-04-03T15:54:41.894Z,21.70
2019-04-03T15:59:51.690Z,24.03
2019-04-03T16:04:58.474Z,17.33
2019-04-03T16:10:04.910Z,20.00
2019-04-03T16:15:11.588Z,22.80
2019-04-03T16:20:18.317Z,23.97
2019-04-03T16:25:24.466Z,23.80
2019-04-03T16:30:30.717Z,22.90
2019-04-03T16:35:37.415Z,21.60
2019-04-03T16:40:43.929Z,21.40
2019-04-03T16:45:51.342Z,19.47
2019-04-03T16:50:59.691Z,18.00
2019-04-03T16:56:07.003Z,19.40
2019-04-03T17:01:14.737Z,31.20
2019-04-03T17:06:21.229Z,21.67
2019-04-03T17:11:27.563Z,21.50
2019-04-03T17:16:33.695Z,37.83
2019-04-03T17:21:41.171Z,24.10
2019-04-03T17:26:51.664Z,23.77
2019-04-03T17:31:57.605Z,18.73
2019-04-03T17:37:03.242Z,22.10
2019-04-03T17:42:09.439Z,19.57
2019-04-03T17:47:15.495Z,18.47
2019-04-03T17:52:21.799Z,19.80
2019-04-03T17:57:27.981Z,31.43
2019-04-03T18:02:34.103Z,24.60
2019-04-03T18:07:40.167Z,21.40
2019-04-03T18:12:46.213Z,23.63
2019-04-03T18:17:52.295Z,23.43
2019-04-03T18:22:58.419Z,18.23
2019-04-03T18:28:05.381Z,19.63
2019-04-03T18:33:11.691Z,26.77
2019-04-03T18:38:17.887Z,27.37
2019-04-03T18:43:24.275Z,24.43
2019-04-03T18:48:30.583Z,21.03
2019-04-03T18:53:36.686Z,25.57
2019-04-03T18:58:44.099Z,24.43
2019-04-03T19:03:51.487Z,30.27
2019-04-03T19:09:09.286Z,28.97
2019-04-03T19:14:05.550Z,29.10
2019-04-03T19:19:11.747Z,31.57
2019-04-03T19:24:17.811Z,24.37
2019-04-03T19:29:23.922Z,31.47
2019-04-03T19:34:30.092Z,30.20
2019-04-03T19:39:37.794Z,34.93
2019-04-03T19:44:44.037Z,32.10
2019-04-03T19:49:50.184Z,29.53
2019-04-03T19:54:56.266Z,31.20
2019-04-03T20:00:03.174Z,29.40
2019-04-03T20:05:10.427Z,26.87
2019-04-03T20:10:16.697Z,28.37
2019-04-03T20:15:23.396Z,36.30
2019-04-03T20:21:10.138Z,29.53
2019-04-03T20:26:16.469Z,35.23
2019-04-03T20:31:23.145Z,33.10
2019-04-03T20:36:29.210Z,40.03
2019-04-03T20:41:35.360Z,27.07
2019-04-03T20:46:41.374Z,29.50
2019-04-03T20:51:48.727Z,27.17
2019-04-03T20:56:57.975Z,31.07
2019-04-03T21:02:02.924Z,25.10
2019-04-03T21:07:09.081Z,35.00
2019-04-03T21:12:15.157Z,23.87
2019-04-03T21:17:23.898Z,26.17
2019-04-03T21:22:30.240Z,30.00
2019-04-03T21:27:39.799Z,25.57
2019-04-03T21:32:44.361Z,28.83
2019-04-03T21:37:50.433Z,23.60
2019-04-03T21:42:57.900Z,30.03
2019-04-03T21:48:04.628Z,24.87
2019-04-03T21:53:10.733Z,31.17
2019-04-03T21:58:16.654Z,32.27
2019-04-03T22:03:22.819Z,35.07
2019-04-03T22:08:29.175Z,28.47
2019-04-03T22:13:38.278Z,32.67
2019-04-03T22:18:43.623Z,26.10
2019-04-03T22:23:51.462Z,29.70
2019-04-03T22:28:57.615Z,28.10
2019-04-03T22:34:03.755Z,26.13
2019-04-03T22:39:10.268Z,30.80
2019-04-03T22:44:17.100Z,29.97
2019-04-03T22:49:24.039Z,28.97
2019-04-03T22:54:30.199Z,26.53
2019-04-03T22:59:38.149Z,27.30
2019-04-03T23:04:46.378Z,29.00
2019-04-03T23:09:52.654Z,29.73
2019-04-03T23:14:58.865Z,30.40
2019-04-03T23:20:05.127Z,32.47
2019-04-03T23:25:11.289Z,25.80
2019-04-03T23:30:17.490Z,25.03
2019-04-03T23:35:23.623Z,25.90
2019-04-03T23:40:29.759Z,31.40
2019-04-03T23:45:35.914Z,29.17
2019-04-03T23:50:42.295Z,29.37
2019-04-03T23:55:48.430Z,25.40
